sensor_id;sensor_type;location;lat;lon;timestamp;temperature;humidity
48946;DHT22;34999;50.940;3.998;2024-03-08T00:00:18;3.80;99.90
48946;DHT22;34999;50.940;3.998;2024-03-08T00:02:47;3.70;99.90
48946;DHT22;34999;50.940;3.998;2024-03-08T00:05:19;3.70;99.90
48946;DHT22;34999;50.940;3.998;2024-03-08T00:07:48;3.70;99.90
48946;DHT22;34999;50.940;3.998;2024-03-08T00:10:16;3.70;99.90
48946;DHT22;34999;50.940;3.998;2024-03-08T00:12:45;3.60;99.90
48946;DHT22;34999;50.940;3.998;2024-03-08T00:15:15;3.60;99.90
48946;DHT22;34999;50.940;3.998;2024-03-08T00:17:46;3.50;99.90
48946;DHT22;34999;50.940;3.998;2024-03-08T00:20:15;3.50;99.90
48946;DHT22;34999;50.940;3.998;2024-03-08T00:22:47;3.60;99.90
48946;DHT22;34999;50.940;3.998;2024-03-08T00:25:15;3.60;99.90
48946;DHT22;34999;50.940;3.998;2024-03-08T00:27:44;3.60;99.90
48946;DHT22;34999;50.940;3.998;2024-03-08T00:30:15;3.60;99.90
48946;DHT22;34999;50.940;3.998;2024-03-08T00:32:43;3.60;99.90
48946;DHT22;34999;50.940;3.998;2024-03-08T00:35:12;3.60;99.90
48946;DHT22;34999;50.940;3.998;2024-03-08T00:37:40;3.70;99.90
48946;DHT22;34999;50.940;3.998;2024-03-08T00:40:11;3.70;99.90
48946;DHT22;34999;50.940;3.998;2024-03-08T00:42:40;3.70;99.90
48946;DHT22;34999;50.940;3.998;2024-03-08T00:45:11;3.70;99.90
48946;DHT22;34999;50.940;3.998;2024-03-08T00:47:39;3.60;99.90
48946;DHT22;34999;50.940;3.998;2024-03-08T00:50:11;3.50;99.90
48946;DHT22;34999;50.940;3.998;2024-03-08T00:52:39;3.50;99.90
48946;DHT22;34999;50.940;3.998;2024-03-08T00:55:08;3.60;99.90
48946;DHT22;34999;50.940;3.998;2024-03-08T00:57:39;3.60;99.90
48946;DHT22;34999;50.940;3.998;2024-03-08T01:00:09;3.60;99.90
48946;DHT22;34999;50.940;3.998;2024-03-08T01:02:40;3.50;99.90
48946;DHT22;34999;50.940;3.998;2024-03-08T01:05:08;3.60;99.90
48946;DHT22;34999;50.940;3.998;2024-03-08T01:07:37;3.60;99.90
48946;DHT22;34999;50.940;3.998;2024-03-08T01:10:06;3.60;99.90
48946;DHT22;34999;50.940;3.998;2024-03-08T01:12:38;3.60;99.90
48946;DHT22;34999;50.940;3.998;2024-03-08T01:15:07;3.50;99.90
48946;DHT22;34999;50.940;3.998;2024-03-08T01:17:36;3.40;99.90
48946;DHT22;34999;50.940;3.998;2024-03-08T01:20:06;3.50;99.90
48946;DHT22;34999;50.940;3.998;2024-03-08T01:22:35;3.40;99.90
48946;DHT22;34999;50.940;3.998;2024-03-08T01:25:04;3.40;99.90
48946;DHT22;34999;50.940;3.998;2024-03-08T01:27:33;3.40;99.90
48946;DHT22;34999;50.940;3.998;2024-03-08T01:30:04;3.40;99.90
48946;DHT22;34999;50.940;3.998;2024-03-08T01:32:33;3.40;99.90
48946;DHT22;34999;50.940;3.998;2024-03-08T01:35:02;3.40;99.90
48946;DHT22;34999;50.940;3.998;2024-03-08T01:37:30;3.40;99.90
48946;DHT22;34999;50.940;3.998;2024-03-08T01:39:59;3.40;99.90
48946;DHT22;34999;50.940;3.998;2024-03-08T01:42:27;3.40;99.90
48946;DHT22;34999;50.940;3.998;2024-03-08T01:44:55;3.40;99.90
48946;DHT22;34999;50.940;3.998;2024-03-08T01:47:25;3.40;99.90
48946;DHT22;34999;50.940;3.998;2024-03-08T01:49:54;3.40;99.90
48946;DHT22;34999;50.940;3.998;2024-03-08T01:52:22;3.40;99.90
48946;DHT22;34999;50.940;3.998;2024-03-08T01:54:52;3.40;99.90
48946;DHT22;34999;50.940;3.998;2024-03-08T01:57:21;3.40;99.90
48946;DHT22;34999;50.940;3.998;2024-03-08T01:59:50;3.30;99.90
48946;DHT22;34999;50.940;3.998;2024-03-08T02:02:22;3.30;99.90
48946;DHT22;34999;50.940;3.998;2024-03-08T02:04:51;3.30;99.90
48946;DHT22;34999;50.940;3.998;2024-03-08T02:07:20;3.30;99.90
48946;DHT22;34999;50.940;3.998;2024-03-08T02:09:49;3.30;99.90
48946;DHT22;34999;50.940;3.998;2024-03-08T02:12:18;3.30;99.90
48946;DHT22;34999;50.940;3.998;2024-03-08T02:14:48;3.30;99.90
48946;DHT22;34999;50.940;3.998;2024-03-08T02:17:17;3.30;99.90
48946;DHT22;34999;50.940;3.998;2024-03-08T02:19:45;3.30;99.90
48946;DHT22;34999;50.940;3.998;2024-03-08T02:22:16;3.30;99.90
48946;DHT22;34999;50.940;3.998;2024-03-08T02:24:45;3.20;99.90
48946;DHT22;34999;50.940;3.998;2024-03-08T02:27:13;3.20;99.90
48946;DHT22;34999;50.940;3.998;2024-03-08T02:29:42;3.20;99.90
48946;DHT22;34999;50.940;3.998;2024-03-08T02:32:12;3.20;99.90
48946;DHT22;34999;50.940;3.998;2024-03-08T02:34:40;3.10;99.90
48946;DHT22;34999;50.940;3.998;2024-03-08T02:37:08;3.10;99.90
48946;DHT22;34999;50.940;3.998;2024-03-08T02:39:38;3.10;99.90
48946;DHT22;34999;50.940;3.998;2024-03-08T02:42:07;3.10;99.90
48946;DHT22;34999;50.940;3.998;2024-03-08T02:44:35;3.10;99.90
48946;DHT22;34999;50.940;3.998;2024-03-08T02:47:04;3.10;99.90
48946;DHT22;34999;50.940;3.998;2024-03-08T02:49:33;3.10;99.90
48946;DHT22;34999;50.940;3.998;2024-03-08T02:52:04;3.10;99.90
48946;DHT22;34999;50.940;3.998;2024-03-08T02:54:34;3.10;99.90
48946;DHT22;34999;50.940;3.998;2024-03-08T02:57:05;3.10;99.90
48946;DHT22;34999;50.940;3.998;2024-03-08T02:59:34;3.10;99.90
48946;DHT22;34999;50.940;3.998;2024-03-08T03:02:06;3.10;99.90
48946;DHT22;34999;50.940;3.998;2024-03-08T03:04:39;3.10;99.90
48946;DHT22;34999;50.940;3.998;2024-03-08T03:07:07;3.10;99.90
48946;DHT22;34999;50.940;3.998;2024-03-08T03:09:35;3.10;99.90
48946;DHT22;34999;50.940;3.998;2024-03-08T03:12:05;3.10;99.90
48946;DHT22;34999;50.940;3.998;2024-03-08T03:14:36;3.10;99.90
48946;DHT22;34999;50.940;3.998;2024-03-08T03:17:05;3.00;99.90
48946;DHT22;34999;50.940;3.998;2024-03-08T03:19:34;3.00;99.90
48946;DHT22;34999;50.940;3.998;2024-03-08T03:22:02;3.00;99.90
48946;DHT22;34999;50.940;3.998;2024-03-08T03:24:33;3.00;99.90
48946;DHT22;34999;50.940;3.998;2024-03-08T03:27:03;3.00;99.90
48946;DHT22;34999;50.940;3.998;2024-03-08T03:29:39;3.00;99.90
48946;DHT22;34999;50.940;3.998;2024-03-08T03:32:11;2.90;99.90
48946;DHT22;34999;50.940;3.998;2024-03-08T03:34:39;2.90;99.90
48946;DHT22;34999;50.940;3.998;2024-03-08T03:37:09;2.90;99.90
48946;DHT22;34999;50.940;3.998;2024-03-08T03:39:40;2.90;99.90
48946;DHT22;34999;50.940;3.998;2024-03-08T03:42:16;2.90;99.90
48946;DHT22;34999;50.940;3.998;2024-03-08T03:44:46;2.90;99.40
48946;DHT22;34999;50.940;3.998;2024-03-08T03:47:15;2.90;99.20
48946;DHT22;34999;50.940;3.998;2024-03-08T03:49:44;2.90;97.50
48946;DHT22;34999;50.940;3.998;2024-03-08T03:52:13;2.90;97.20
48946;DHT22;34999;50.940;3.998;2024-03-08T03:54:42;2.80;96.50
48946;DHT22;34999;50.940;3.998;2024-03-08T03:57:10;2.80;96.20
48946;DHT22;34999;50.940;3.998;2024-03-08T03:59:40;2.80;95.90
48946;DHT22;34999;50.940;3.998;2024-03-08T04:02:10;2.80;95.10
48946;DHT22;34999;50.940;3.998;2024-03-08T04:04:39;2.80;94.90
48946;DHT22;34999;50.940;3.998;2024-03-08T04:07:07;2.80;94.20
48946;DHT22;34999;50.940;3.998;2024-03-08T04:09:36;2.80;94.10
48946;DHT22;34999;50.940;3.998;2024-03-08T04:12:05;2.70;95.90
48946;DHT22;34999;50.940;3.998;2024-03-08T04:14:34;2.70;94.50
48946;DHT22;34999;50.940;3.998;2024-03-08T04:17:03;2.70;94.70
48946;DHT22;34999;50.940;3.998;2024-03-08T04:19:34;2.70;93.10
48946;DHT22;34999;50.940;3.998;2024-03-08T04:22:03;2.70;93.80
48946;DHT22;34999;50.940;3.998;2024-03-08T04:24:31;2.70;92.80
48946;DHT22;34999;50.940;3.998;2024-03-08T04:27:01;2.60;95.60
48946;DHT22;34999;50.940;3.998;2024-03-08T04:29:29;2.60;93.90
48946;DHT22;34999;50.940;3.998;2024-03-08T04:31:59;2.60;93.20
48946;DHT22;34999;50.940;3.998;2024-03-08T04:34:27;2.60;92.20
48946;DHT22;34999;50.940;3.998;2024-03-08T04:36:58;2.60;94.20
48946;DHT22;34999;50.940;3.998;2024-03-08T04:39:27;2.60;94.50
48946;DHT22;34999;50.940;3.998;2024-03-08T04:41:57;2.60;92.30
48946;DHT22;34999;50.940;3.998;2024-03-08T04:44:32;2.60;92.00
48946;DHT22;34999;50.940;3.998;2024-03-08T04:47:00;2.60;91.40
48946;DHT22;34999;50.940;3.998;2024-03-08T04:49:29;2.60;92.00
48946;DHT22;34999;50.940;3.998;2024-03-08T04:51:58;2.50;95.70
48946;DHT22;34999;50.940;3.998;2024-03-08T04:54:27;2.50;96.30
48946;DHT22;34999;50.940;3.998;2024-03-08T04:56:55;2.40;98.70
48946;DHT22;34999;50.940;3.998;2024-03-08T04:59:24;2.40;97.00
48946;DHT22;34999;50.940;3.998;2024-03-08T05:01:52;2.50;97.70
48946;DHT22;34999;50.940;3.998;2024-03-08T05:04:21;2.50;96.80
48946;DHT22;34999;50.940;3.998;2024-03-08T05:06:49;2.40;96.00
48946;DHT22;34999;50.940;3.998;2024-03-08T05:09:19;2.40;97.00
48946;DHT22;34999;50.940;3.998;2024-03-08T05:11:48;2.40;96.30
48946;DHT22;34999;50.940;3.998;2024-03-08T05:14:17;2.40;98.10
48946;DHT22;34999;50.940;3.998;2024-03-08T05:16:47;2.40;97.80
48946;DHT22;34999;50.940;3.998;2024-03-08T05:19:16;2.40;98.70
48946;DHT22;34999;50.940;3.998;2024-03-08T05:21:46;2.40;99.40
48946;DHT22;34999;50.940;3.998;2024-03-08T05:24:15;2.40;99.20
48946;DHT22;34999;50.940;3.998;2024-03-08T05:26:46;2.40;98.70
48946;DHT22;34999;50.940;3.998;2024-03-08T05:29:15;2.30;98.40
48946;DHT22;34999;50.940;3.998;2024-03-08T05:31:47;2.30;99.90
48946;DHT22;34999;50.940;3.998;2024-03-08T05:34:16;2.30;99.90
48946;DHT22;34999;50.940;3.998;2024-03-08T05:36:46;2.40;97.30
48946;DHT22;34999;50.940;3.998;2024-03-08T05:39:17;2.40;97.00
48946;DHT22;34999;50.940;3.998;2024-03-08T05:41:48;2.40;98.10
48946;DHT22;34999;50.940;3.998;2024-03-08T05:44:17;2.30;98.70
48946;DHT22;34999;50.940;3.998;2024-03-08T05:46:46;2.30;99.90
48946;DHT22;34999;50.940;3.998;2024-03-08T05:49:14;2.30;99.90
48946;DHT22;34999;50.940;3.998;2024-03-08T05:51:43;2.20;99.90
48946;DHT22;34999;50.940;3.998;2024-03-08T05:54:12;2.20;99.90
48946;DHT22;34999;50.940;3.998;2024-03-08T05:56:45;2.20;99.90
48946;DHT22;34999;50.940;3.998;2024-03-08T05:59:19;2.20;99.90
48946;DHT22;34999;50.940;3.998;2024-03-08T06:01:47;2.20;99.90
48946;DHT22;34999;50.940;3.998;2024-03-08T06:04:16;2.20;99.90
48946;DHT22;34999;50.940;3.998;2024-03-08T06:06:44;2.20;99.90
48946;DHT22;34999;50.940;3.998;2024-03-08T06:09:18;2.20;99.90
48946;DHT22;34999;50.940;3.998;2024-03-08T06:11:51;2.20;99.90
48946;DHT22;34999;50.940;3.998;2024-03-08T06:14:21;2.20;99.90
48946;DHT22;34999;50.940;3.998;2024-03-08T06:16:50;2.20;99.90
48946;DHT22;34999;50.940;3.998;2024-03-08T06:19:19;2.10;99.90
48946;DHT22;34999;50.940;3.998;2024-03-08T06:21:47;2.20;99.90
48946;DHT22;34999;50.940;3.998;2024-03-08T06:24:15;2.20;99.90
48946;DHT22;34999;50.940;3.998;2024-03-08T06:26:45;2.20;99.90
48946;DHT22;34999;50.940;3.998;2024-03-08T06:29:13;2.20;99.90
48946;DHT22;34999;50.940;3.998;2024-03-08T06:31:44;2.20;99.90
48946;DHT22;34999;50.940;3.998;2024-03-08T06:34:12;2.20;99.90
48946;DHT22;34999;50.940;3.998;2024-03-08T06:36:42;2.20;99.90
48946;DHT22;34999;50.940;3.998;2024-03-08T06:39:16;2.20;99.90
48946;DHT22;34999;50.940;3.998;2024-03-08T06:41:56;2.20;99.90
48946;DHT22;34999;50.940;3.998;2024-03-08T06:44:25;2.20;99.90
48946;DHT22;34999;50.940;3.998;2024-03-08T06:46:55;2.20;99.90
48946;DHT22;34999;50.940;3.998;2024-03-08T06:49:27;2.20;99.90
48946;DHT22;34999;50.940;3.998;2024-03-08T06:51:55;2.30;99.90
48946;DHT22;34999;50.940;3.998;2024-03-08T06:54:24;2.30;99.90
48946;DHT22;34999;50.940;3.998;2024-03-08T06:56:52;2.30;99.90
48946;DHT22;34999;50.940;3.998;2024-03-08T06:59:21;2.30;99.90
48946;DHT22;34999;50.940;3.998;2024-03-08T07:01:49;2.40;98.80
48946;DHT22;34999;50.940;3.998;2024-03-08T07:04:19;2.40;97.80
48946;DHT22;34999;50.940;3.998;2024-03-08T07:06:48;2.40;98.20
48946;DHT22;34999;50.940;3.998;2024-03-08T07:09:17;2.50;98.00
48946;DHT22;34999;50.940;3.998;2024-03-08T07:11:46;2.50;96.40
48946;DHT22;34999;50.940;3.998;2024-03-08T07:14:18;2.60;95.20
48946;DHT22;34999;50.940;3.998;2024-03-08T07:16:49;2.60;93.10
48946;DHT22;34999;50.940;3.998;2024-03-08T07:19:19;2.70;90.20
48946;DHT22;34999;50.940;3.998;2024-03-08T07:21:48;2.70;91.10
48946;DHT22;34999;50.940;3.998;2024-03-08T07:24:17;2.80;85.70
48946;DHT22;34999;50.940;3.998;2024-03-08T07:27:06;2.80;81.40
48946;DHT22;34999;50.940;3.998;2024-03-08T07:29:35;2.90;77.80
48946;DHT22;34999;50.940;3.998;2024-03-08T07:32:04;3.00;75.00
48946;DHT22;34999;50.940;3.998;2024-03-08T07:34:47;3.10;68.30
48946;DHT22;34999;50.940;3.998;2024-03-08T07:37:17;3.30;58.10
48946;DHT22;34999;50.940;3.998;2024-03-08T07:39:47;3.70;33.70
48946;DHT22;34999;50.940;3.998;2024-03-08T07:42:16;4.20;14.80
48946;DHT22;34999;50.940;3.998;2024-03-08T07:44:44;4.60;1.00
48946;DHT22;34999;50.940;3.998;2024-03-08T07:47:15;4.80;1.00
48946;DHT22;34999;50.940;3.998;2024-03-08T07:49:49;5.20;1.00
48946;DHT22;34999;50.940;3.998;2024-03-08T07:52:18;5.60;1.00
48946;DHT22;34999;50.940;3.998;2024-03-08T07:54:47;5.80;1.00
48946;DHT22;34999;50.940;3.998;2024-03-08T07:57:16;6.00;1.00
48946;DHT22;34999;50.940;3.998;2024-03-08T07:59:44;6.20;1.00
48946;DHT22;34999;50.940;3.998;2024-03-08T08:02:13;6.40;1.00
48946;DHT22;34999;50.940;3.998;2024-03-08T08:04:42;6.70;1.00
48946;DHT22;34999;50.940;3.998;2024-03-08T08:07:13;6.80;1.00
48946;DHT22;34999;50.940;3.998;2024-03-08T08:09:42;6.70;1.00
48946;DHT22;34999;50.940;3.998;2024-03-08T08:12:12;6.70;1.00
48946;DHT22;34999;50.940;3.998;2024-03-08T08:14:41;6.90;1.00
48946;DHT22;34999;50.940;3.998;2024-03-08T08:17:09;6.90;1.00
48946;DHT22;34999;50.940;3.998;2024-03-08T08:19:41;7.10;1.00
48946;DHT22;34999;50.940;3.998;2024-03-08T08:22:10;7.30;1.00
48946;DHT22;34999;50.940;3.998;2024-03-08T08:24:40;7.20;1.00
48946;DHT22;34999;50.940;3.998;2024-03-08T08:27:08;7.20;1.00
48946;DHT22;34999;50.940;3.998;2024-03-08T08:29:39;7.40;1.00
48946;DHT22;34999;50.940;3.998;2024-03-08T08:32:07;7.70;1.00
48946;DHT22;34999;50.940;3.998;2024-03-08T08:34:36;7.90;99.90
48946;DHT22;34999;50.940;3.998;2024-03-08T08:37:04;8.00;99.90
48946;DHT22;34999;50.940;3.998;2024-03-08T08:39:33;8.10;99.90
48946;DHT22;34999;50.940;3.998;2024-03-08T08:42:03;8.10;99.90
48946;DHT22;34999;50.940;3.998;2024-03-08T08:44:31;8.10;99.90
48946;DHT22;34999;50.940;3.998;2024-03-08T08:47:05;8.30;99.90
48946;DHT22;34999;50.940;3.998;2024-03-08T08:49:41;8.40;99.90
48946;DHT22;34999;50.940;3.998;2024-03-08T08:52:11;8.20;99.90
48946;DHT22;34999;50.940;3.998;2024-03-08T08:54:43;8.30;99.90
48946;DHT22;34999;50.940;3.998;2024-03-08T08:57:17;8.30;99.90
48946;DHT22;34999;50.940;3.998;2024-03-08T08:59:47;8.10;99.90
48946;DHT22;34999;50.940;3.998;2024-03-08T09:02:16;8.20;99.90
48946;DHT22;34999;50.940;3.998;2024-03-08T09:04:47;8.50;35.90
48946;DHT22;34999;50.940;3.998;2024-03-08T09:07:17;8.40;10.80
48946;DHT22;34999;50.940;3.998;2024-03-08T09:09:46;8.60;91.90
48946;DHT22;34999;50.940;3.998;2024-03-08T09:12:14;8.60;1.00
48946;DHT22;34999;50.940;3.998;2024-03-08T09:14:44;8.60;29.60
48946;DHT22;34999;50.940;3.998;2024-03-08T09:17:13;8.80;1.00
48946;DHT22;34999;50.940;3.998;2024-03-08T09:19:44;8.90;1.00
48946;DHT22;34999;50.940;3.998;2024-03-08T09:22:13;9.00;1.00
48946;DHT22;34999;50.940;3.998;2024-03-08T09:24:41;9.20;1.00
48946;DHT22;34999;50.940;3.998;2024-03-08T09:27:10;9.40;1.00
48946;DHT22;34999;50.940;3.998;2024-03-08T09:29:38;9.40;99.90
48946;DHT22;34999;50.940;3.998;2024-03-08T09:32:08;9.80;1.00
48946;DHT22;34999;50.940;3.998;2024-03-08T09:34:38;10.10;1.00
48946;DHT22;34999;50.940;3.998;2024-03-08T09:37:07;10.10;99.90
48946;DHT22;34999;50.940;3.998;2024-03-08T09:39:36;10.30;1.00
48946;DHT22;34999;50.940;3.998;2024-03-08T09:42:05;10.20;75.10
48946;DHT22;34999;50.940;3.998;2024-03-08T09:44:34;10.30;1.00
48946;DHT22;34999;50.940;3.998;2024-03-08T09:47:03;10.50;1.00
48946;DHT22;34999;50.940;3.998;2024-03-08T09:49:34;10.50;1.00
48946;DHT22;34999;50.940;3.998;2024-03-08T09:52:05;10.70;99.90
48946;DHT22;34999;50.940;3.998;2024-03-08T09:54:34;10.60;1.00
48946;DHT22;34999;50.940;3.998;2024-03-08T09:57:04;10.80;1.00
48946;DHT22;34999;50.940;3.998;2024-03-08T09:59:35;10.80;99.90
48946;DHT22;34999;50.940;3.998;2024-03-08T10:02:15;10.80;99.90
48946;DHT22;34999;50.940;3.998;2024-03-08T10:04:45;11.00;1.00
48946;DHT22;34999;50.940;3.998;2024-03-08T10:07:17;11.30;1.00
48946;DHT22;34999;50.940;3.998;2024-03-08T10:09:45;11.70;99.90
48946;DHT22;34999;50.940;3.998;2024-03-08T10:12:17;11.80;1.00
48946;DHT22;34999;50.940;3.998;2024-03-08T10:14:48;12.10;1.00
48946;DHT22;34999;50.940;3.998;2024-03-08T10:17:17;12.10;99.90
48946;DHT22;34999;50.940;3.998;2024-03-08T10:19:54;12.10;1.00
48946;DHT22;34999;50.940;3.998;2024-03-08T10:22:22;12.40;1.00
48946;DHT22;34999;50.940;3.998;2024-03-08T10:24:51;12.60;1.00
48946;DHT22;34999;50.940;3.998;2024-03-08T10:27:19;12.40;99.90
48946;DHT22;34999;50.940;3.998;2024-03-08T10:29:48;12.20;99.90
48946;DHT22;34999;50.940;3.998;2024-03-08T10:32:19;12.50;1.00
48946;DHT22;34999;50.940;3.998;2024-03-08T10:34:47;12.40;1.00
48946;DHT22;34999;50.940;3.998;2024-03-08T10:37:21;12.60;1.00
48946;DHT22;34999;50.940;3.998;2024-03-08T10:40:00;12.60;1.00
48946;DHT22;34999;50.940;3.998;2024-03-08T10:42:41;12.80;99.90
48946;DHT22;34999;50.940;3.998;2024-03-08T10:45:18;12.90;1.00
48946;DHT22;34999;50.940;3.998;2024-03-08T10:47:50;13.00;99.90
48946;DHT22;34999;50.940;3.998;2024-03-08T10:50:25;13.30;1.00
48946;DHT22;34999;50.940;3.998;2024-03-08T10:52:57;13.20;1.00
48946;DHT22;34999;50.940;3.998;2024-03-08T10:55:28;13.00;1.00
48946;DHT22;34999;50.940;3.998;2024-03-08T10:57:59;13.10;1.00
48946;DHT22;34999;50.940;3.998;2024-03-08T11:00:28;13.20;1.00
48946;DHT22;34999;50.940;3.998;2024-03-08T11:02:58;13.60;1.00
48946;DHT22;34999;50.940;3.998;2024-03-08T11:05:37;13.90;1.00
48946;DHT22;34999;50.940;3.998;2024-03-08T11:08:18;13.70;99.90
48946;DHT22;34999;50.940;3.998;2024-03-08T11:10:48;13.70;99.90
48946;DHT22;34999;50.940;3.998;2024-03-08T11:13:34;13.60;99.90
48946;DHT22;34999;50.940;3.998;2024-03-08T11:16:07;13.30;99.90
48946;DHT22;34999;50.940;3.998;2024-03-08T11:18:37;13.50;1.00
48946;DHT22;34999;50.940;3.998;2024-03-08T11:21:08;14.00;99.40
48946;DHT22;34999;50.940;3.998;2024-03-08T11:23:41;14.30;25.50
48946;DHT22;34999;50.940;3.998;2024-03-08T11:26:18;14.50;1.00
48946;DHT22;34999;50.940;3.998;2024-03-08T11:28:47;14.30;1.00
48946;DHT22;34999;50.940;3.998;2024-03-08T11:31:25;14.20;1.00
48946;DHT22;34999;50.940;3.998;2024-03-08T11:33:55;14.30;1.00
48946;DHT22;34999;50.940;3.998;2024-03-08T11:36:24;14.20;1.00
48946;DHT22;34999;50.940;3.998;2024-03-08T11:38:57;14.30;1.00
48946;DHT22;34999;50.940;3.998;2024-03-08T11:41:26;14.20;1.00
48946;DHT22;34999;50.940;3.998;2024-03-08T11:44:05;14.30;1.00
48946;DHT22;34999;50.940;3.998;2024-03-08T11:46:34;14.30;1.00
48946;DHT22;34999;50.940;3.998;2024-03-08T11:49:02;14.20;1.00
48946;DHT22;34999;50.940;3.998;2024-03-08T11:51:33;14.40;1.00
48946;DHT22;34999;50.940;3.998;2024-03-08T11:54:02;14.80;1.00
48946;DHT22;34999;50.940;3.998;2024-03-08T11:56:33;15.10;1.00
48946;DHT22;34999;50.940;3.998;2024-03-08T11:59:01;15.40;99.90
48946;DHT22;34999;50.940;3.998;2024-03-08T12:01:30;15.50;99.90
48946;DHT22;34999;50.940;3.998;2024-03-08T12:03:59;15.30;99.90
48946;DHT22;34999;50.940;3.998;2024-03-08T12:06:39;15.30;99.90
48946;DHT22;34999;50.940;3.998;2024-03-08T12:09:10;15.00;99.90
48946;DHT22;34999;50.940;3.998;2024-03-08T12:11:42;15.20;1.00
48946;DHT22;34999;50.940;3.998;2024-03-08T12:14:13;15.30;99.90
48946;DHT22;34999;50.940;3.998;2024-03-08T12:16:42;16.00;99.90
48946;DHT22;34999;50.940;3.998;2024-03-08T12:19:11;15.60;3.60
48946;DHT22;34999;50.940;3.998;2024-03-08T12:21:42;15.40;13.00
48946;DHT22;34999;50.940;3.998;2024-03-08T12:24:17;15.00;93.80
48946;DHT22;34999;50.940;3.998;2024-03-08T12:26:47;15.30;64.00
48946;DHT22;34999;50.940;3.998;2024-03-08T12:29:21;15.50;1.00
48946;DHT22;34999;50.940;3.998;2024-03-08T12:31:52;15.60;1.00
48946;DHT22;34999;50.940;3.998;2024-03-08T12:34:21;15.70;1.00
48946;DHT22;34999;50.940;3.998;2024-03-08T12:36:52;16.20;1.00
48946;DHT22;34999;50.940;3.998;2024-03-08T12:39:23;16.30;1.00
48946;DHT22;34999;50.940;3.998;2024-03-08T12:41:55;16.00;1.00
48946;DHT22;34999;50.940;3.998;2024-03-08T12:44:24;15.60;1.00
48946;DHT22;34999;50.940;3.998;2024-03-08T12:46:53;15.20;1.00
48946;DHT22;34999;50.940;3.998;2024-03-08T12:49:21;15.50;1.00
48946;DHT22;34999;50.940;3.998;2024-03-08T12:51:50;15.30;1.00
48946;DHT22;34999;50.940;3.998;2024-03-08T12:54:21;15.40;1.00
48946;DHT22;34999;50.940;3.998;2024-03-08T12:56:51;15.50;1.00
48946;DHT22;34999;50.940;3.998;2024-03-08T12:59:22;15.40;1.00
48946;DHT22;34999;50.940;3.998;2024-03-08T13:01:51;15.50;1.00
48946;DHT22;34999;50.940;3.998;2024-03-08T13:04:21;15.20;1.00
48946;DHT22;34999;50.940;3.998;2024-03-08T13:06:50;14.80;99.90
48946;DHT22;34999;50.940;3.998;2024-03-08T13:09:22;15.00;99.90
48946;DHT22;34999;50.940;3.998;2024-03-08T13:11:54;14.50;32.00
48946;DHT22;34999;50.940;3.998;2024-03-08T13:14:25;14.50;99.90
48946;DHT22;34999;50.940;3.998;2024-03-08T13:16:54;14.50;99.90
48946;DHT22;34999;50.940;3.998;2024-03-08T13:19:23;14.50;99.90
48946;DHT22;34999;50.940;3.998;2024-03-08T13:21:55;14.60;99.90
48946;DHT22;34999;50.940;3.998;2024-03-08T13:24:25;14.80;99.90
48946;DHT22;34999;50.940;3.998;2024-03-08T13:26:53;14.30;99.90
48946;DHT22;34999;50.940;3.998;2024-03-08T13:29:22;14.40;99.90
48946;DHT22;34999;50.940;3.998;2024-03-08T13:31:50;14.30;99.90
48946;DHT22;34999;50.940;3.998;2024-03-08T13:34:22;14.40;99.90
48946;DHT22;34999;50.940;3.998;2024-03-08T13:36:56;14.40;99.90
48946;DHT22;34999;50.940;3.998;2024-03-08T13:39:29;14.50;99.90
48946;DHT22;34999;50.940;3.998;2024-03-08T13:42:07;14.30;1.00
48946;DHT22;34999;50.940;3.998;2024-03-08T13:44:36;14.20;99.90
48946;DHT22;34999;50.940;3.998;2024-03-08T13:47:05;14.10;99.90
48946;DHT22;34999;50.940;3.998;2024-03-08T13:49:37;14.10;99.90
48946;DHT22;34999;50.940;3.998;2024-03-08T13:52:05;13.80;99.90
48946;DHT22;34999;50.940;3.998;2024-03-08T13:54:37;13.80;99.90
48946;DHT22;34999;50.940;3.998;2024-03-08T13:57:06;13.70;1.00
48946;DHT22;34999;50.940;3.998;2024-03-08T13:59:34;13.80;1.00
48946;DHT22;34999;50.940;3.998;2024-03-08T14:02:04;13.80;1.00
48946;DHT22;34999;50.940;3.998;2024-03-08T14:04:33;13.70;1.00
48946;DHT22;34999;50.940;3.998;2024-03-08T14:07:01;13.70;1.00
48946;DHT22;34999;50.940;3.998;2024-03-08T14:09:31;13.70;1.00
48946;DHT22;34999;50.940;3.998;2024-03-08T14:12:06;13.70;1.00
48946;DHT22;34999;50.940;3.998;2024-03-08T14:14:35;13.60;1.00
48946;DHT22;34999;50.940;3.998;2024-03-08T14:17:04;13.60;1.00
48946;DHT22;34999;50.940;3.998;2024-03-08T14:19:36;13.60;1.00
48946;DHT22;34999;50.940;3.998;2024-03-08T14:22:06;13.80;1.00
48946;DHT22;34999;50.940;3.998;2024-03-08T14:24:37;13.80;1.00
48946;DHT22;34999;50.940;3.998;2024-03-08T14:27:08;13.80;1.00
48946;DHT22;34999;50.940;3.998;2024-03-08T14:29:36;14.00;99.90
48946;DHT22;34999;50.940;3.998;2024-03-08T14:32:05;14.00;1.00
48946;DHT22;34999;50.940;3.998;2024-03-08T14:34:35;13.90;1.00
48946;DHT22;34999;50.940;3.998;2024-03-08T14:37:03;13.90;1.00
48946;DHT22;34999;50.940;3.998;2024-03-08T14:39:35;14.10;1.00
48946;DHT22;34999;50.940;3.998;2024-03-08T14:42:04;14.10;1.00
48946;DHT22;34999;50.940;3.998;2024-03-08T14:44:38;14.00;1.00
48946;DHT22;34999;50.940;3.998;2024-03-08T14:47:07;14.00;1.00
48946;DHT22;34999;50.940;3.998;2024-03-08T14:49:35;14.10;1.00
48946;DHT22;34999;50.940;3.998;2024-03-08T14:52:05;14.10;1.00
48946;DHT22;34999;50.940;3.998;2024-03-08T14:54:54;14.10;1.00
48946;DHT22;34999;50.940;3.998;2024-03-08T14:57:23;14.00;1.00
48946;DHT22;34999;50.940;3.998;2024-03-08T14:59:52;13.90;1.00
48946;DHT22;34999;50.940;3.998;2024-03-08T15:02:21;13.90;1.00
48946;DHT22;34999;50.940;3.998;2024-03-08T15:04:49;13.90;1.00
48946;DHT22;34999;50.940;3.998;2024-03-08T15:07:25;13.80;1.00
48946;DHT22;34999;50.940;3.998;2024-03-08T15:09:53;13.60;1.00
48946;DHT22;34999;50.940;3.998;2024-03-08T15:12:24;13.80;1.00
48946;DHT22;34999;50.940;3.998;2024-03-08T15:14:55;13.90;1.00
48946;DHT22;34999;50.940;3.998;2024-03-08T15:17:23;14.10;1.00
48946;DHT22;34999;50.940;3.998;2024-03-08T15:19:51;14.40;1.00
48946;DHT22;34999;50.940;3.998;2024-03-08T15:22:21;14.40;1.00
48946;DHT22;34999;50.940;3.998;2024-03-08T15:24:50;14.10;1.00
48946;DHT22;34999;50.940;3.998;2024-03-08T15:27:19;14.00;1.00
48946;DHT22;34999;50.940;3.998;2024-03-08T15:29:48;14.00;1.00
48946;DHT22;34999;50.940;3.998;2024-03-08T15:32:23;14.00;1.00
48946;DHT22;34999;50.940;3.998;2024-03-08T15:34:51;14.10;1.00
48946;DHT22;34999;50.940;3.998;2024-03-08T15:37:21;14.20;1.00
48946;DHT22;34999;50.940;3.998;2024-03-08T15:39:52;14.30;1.00
48946;DHT22;34999;50.940;3.998;2024-03-08T15:42:21;14.30;1.00
48946;DHT22;34999;50.940;3.998;2024-03-08T15:44:49;14.40;1.00
48946;DHT22;34999;50.940;3.998;2024-03-08T15:47:22;14.20;1.00
48946;DHT22;34999;50.940;3.998;2024-03-08T15:49:53;14.00;1.00
48946;DHT22;34999;50.940;3.998;2024-03-08T15:52:21;14.00;1.00
48946;DHT22;34999;50.940;3.998;2024-03-08T15:54:50;13.90;1.00
48946;DHT22;34999;50.940;3.998;2024-03-08T15:57:18;13.90;1.00
48946;DHT22;34999;50.940;3.998;2024-03-08T15:59:48;14.00;1.00
48946;DHT22;34999;50.940;3.998;2024-03-08T16:02:17;13.90;1.00